createdAt,value
2016-12-02T00:00:11.082Z,929.16
2016-12-02T00:00:39.274Z,929.17
2016-12-02T00:01:07.583Z,929.2
2016-12-02T00:01:35.708Z,929.23
2016-12-02T00:02:03.922Z,929.21
2016-12-02T00:02:31.930Z,929.26
2016-12-02T00:03:43.188Z,929.25
2016-12-02T00:04:11.397Z,929.24
2016-12-02T00:04:39.720Z,929.26
2016-12-02T00:05:07.811Z,929.34
2016-12-02T00:05:36.008Z,929.29
2016-12-02T00:06:04.146Z,929.3
2016-12-02T00:06:32.241Z,929.24
2016-12-02T00:07:00.547Z,929.26
2016-12-02T00:07:28.759Z,929.24
2016-12-02T00:07:56.975Z,929.28
2016-12-02T00:08:25.078Z,929.35
2016-12-02T00:09:36.334Z,929.29
2016-12-02T00:10:04.352Z,929.31
2016-12-02T00:10:32.581Z,929.31
2016-12-02T00:11:00.870Z,929.34
2016-12-02T00:11:28.964Z,929.37
2016-12-02T00:11:56.918Z,929.34
2016-12-02T00:12:25.020Z,929.34
2016-12-02T00:12:53.230Z,929.38
2016-12-02T00:13:21.175Z,929.41
2016-12-02T00:13:49.202Z,929.34
2016-12-02T00:14:17.205Z,929.34
2016-12-02T00:15:28.288Z,929.33
2016-12-02T00:15:56.409Z,929.33
2016-12-02T00:16:24.723Z,929.32
2016-12-02T00:16:52.815Z,929.36
2016-12-02T00:17:21.104Z,929.39
2016-12-02T00:17:49.343Z,929.39
2016-12-02T00:18:17.531Z,929.42
2016-12-02T00:18:45.654Z,929.39
2016-12-02T00:19:13.965Z,929.4
2016-12-02T00:19:42.274Z,929.42
2016-12-02T00:20:10.466Z,929.41
2016-12-02T00:21:21.627Z,929.41
2016-12-02T00:21:49.841Z,929.38
2016-12-02T00:22:18.168Z,929.39
2016-12-02T00:22:46.164Z,929.4
2016-12-02T00:23:14.364Z,929.35
2016-12-02T00:23:42.500Z,929.41
2016-12-02T00:24:10.502Z,929.36
2016-12-02T00:24:38.720Z,929.41
2016-12-02T00:25:07.028Z,929.35
2016-12-02T00:25:35.337Z,929.37
2016-12-02T00:26:03.529Z,929.34
2016-12-02T00:27:14.697Z,929.38
2016-12-02T00:27:42.902Z,929.32
2016-12-02T00:28:11.309Z,929.35
2016-12-02T00:28:39.400Z,929.41
2016-12-02T00:29:07.408Z,929.33
2016-12-02T00:29:35.545Z,929.34
2016-12-02T00:30:03.735Z,929.32
2016-12-02T00:30:31.852Z,929.33
2016-12-02T00:30:59.879Z,929.29
2016-12-02T00:31:28.099Z,929.31
2016-12-02T00:31:56.288Z,929.25
2016-12-02T00:33:07.547Z,929.3
2016-12-02T00:33:35.756Z,929.26
2016-12-02T00:34:04.072Z,929.28
2016-12-02T00:34:32.264Z,929.25
2016-12-02T00:35:00.460Z,929.22
2016-12-02T00:35:28.509Z,929.28
2016-12-02T00:35:56.792Z,929.25
2016-12-02T00:36:25.153Z,929.26
2016-12-02T00:36:53.370Z,929.27
2016-12-02T00:37:21.587Z,929.28
2016-12-02T00:37:49.871Z,929.25
2016-12-02T00:39:01.127Z,929.23
2016-12-02T00:39:29.237Z,929.23
2016-12-02T00:39:57.561Z,929.22
2016-12-02T00:40:25.655Z,929.26
2016-12-02T00:40:53.847Z,929.23
2016-12-02T00:41:21.982Z,929.23
2016-12-02T00:41:50.079Z,929.31
2016-12-02T00:42:18.291Z,929.29
2016-12-02T00:42:46.599Z,929.32
2016-12-02T00:43:14.813Z,929.29
2016-12-02T00:43:42.907Z,929.25
2016-12-02T00:44:54.255Z,929.27
2016-12-02T00:45:22.468Z,929.29
2016-12-02T00:45:50.506Z,929.28
2016-12-02T00:46:18.692Z,929.29
2016-12-02T00:46:46.698Z,929.33
2016-12-02T00:47:14.926Z,929.33
2016-12-02T00:47:43.150Z,929.35
2016-12-02T00:48:11.272Z,929.37
2016-12-02T00:48:39.302Z,929.35
2016-12-02T00:49:07.780Z,929.36
2016-12-02T00:49:35.880Z,929.38
2016-12-02T00:50:46.952Z,929.4
2016-12-02T00:51:14.977Z,929.38
2016-12-02T00:51:43.211Z,929.49
2016-12-02T00:52:11.502Z,929.44
2016-12-02T00:52:39.604Z,929.4
2016-12-02T00:53:07.757Z,929.44
2016-12-02T00:53:35.861Z,929.41
2016-12-02T00:54:04.166Z,929.44
2016-12-02T00:54:32.300Z,929.44
2016-12-02T00:55:00.429Z,929.43
2016-12-02T00:55:28.723Z,929.43
2016-12-02T00:56:40.079Z,929.4
2016-12-02T00:57:08.288Z,929.42
2016-12-02T00:57:36.511Z,929.42
2016-12-02T00:58:04.511Z,929.45
2016-12-02T00:58:32.721Z,929.43
2016-12-02T00:59:01.054Z,929.33
2016-12-02T00:59:29.151Z,929.38
2016-12-02T00:59:57.366Z,929.37
2016-12-02T01:00:25.583Z,929.41
2016-12-02T01:00:53.622Z,929.43
2016-12-02T01:01:21.629Z,929.42
2016-12-02T01:02:32.793Z,929.44
2016-12-02T01:03:00.907Z,929.41
2016-12-02T01:03:29.135Z,929.38
2016-12-02T01:03:57.231Z,929.39
2016-12-02T01:04:25.334Z,929.44
2016-12-02T01:04:53.561Z,929.43
2016-12-02T01:05:21.663Z,929.41
2016-12-02T01:05:49.967Z,929.41
2016-12-02T01:06:18.183Z,929.46
2016-12-02T01:06:46.305Z,929.45
2016-12-02T01:07:14.590Z,929.39
2016-12-02T01:08:25.958Z,929.39
2016-12-02T01:08:54.260Z,929.38
2016-12-02T01:09:22.586Z,929.45
2016-12-02T01:09:50.685Z,929.34
2016-12-02T01:10:18.880Z,929.41
2016-12-02T01:10:47.018Z,929.31
2016-12-02T01:11:15.458Z,929.36
2016-12-02T01:11:43.672Z,929.36
2016-12-02T01:12:11.887Z,929.35
2016-12-02T01:12:40.118Z,929.36
2016-12-02T01:13:08.040Z,929.35
2016-12-02T01:14:19.306Z,929.31
2016-12-02T01:14:47.433Z,929.3
2016-12-02T01:15:15.849Z,929.31
2016-12-02T01:15:44.140Z,929.3
2016-12-02T01:16:12.245Z,929.28
2016-12-02T01:16:40.480Z,929.23
2016-12-02T01:17:08.674Z,929.23
2016-12-02T01:17:36.789Z,929.28
2016-12-02T01:18:04.823Z,929.31
2016-12-02T01:18:33.147Z,929.21
2016-12-02T01:19:01.247Z,929.26
2016-12-02T01:20:12.596Z,929.26
2016-12-02T01:20:40.903Z,929.26
2016-12-02T01:21:09.222Z,929.26
2016-12-02T01:21:37.426Z,929.25
2016-12-02T01:22:05.621Z,929.27
2016-12-02T01:22:33.664Z,929.22
2016-12-02T01:23:01.858Z,929.22
2016-12-02T01:23:30.075Z,929.21
2016-12-02T01:23:58.197Z,929.25
2016-12-02T01:24:26.521Z,929.2
2016-12-02T01:24:54.711Z,929.24
2016-12-02T01:26:05.874Z,929.2
2016-12-02T01:26:33.894Z,929.19
2016-12-02T01:27:02.223Z,929.18
2016-12-02T01:27:30.410Z,929.15
2016-12-02T01:27:58.607Z,929.16
2016-12-02T01:28:26.934Z,929.16
2016-12-02T01:28:55.131Z,929.18
2016-12-02T01:29:23.345Z,929.21
2016-12-02T01:29:51.564Z,929.09
2016-12-02T01:30:19.689Z,929.2
2016-12-02T01:30:47.886Z,929.14
2016-12-02T01:31:59.158Z,929.15
2016-12-02T01:32:27.364Z,929.15
2016-12-02T01:32:55.684Z,929.14
2016-12-02T01:33:23.777Z,929.13
2016-12-02T01:33:51.977Z,929.13
2016-12-02T01:34:20.017Z,929.14
2016-12-02T01:34:48.301Z,929.09
2016-12-02T01:35:16.416Z,929.11
2016-12-02T01:35:44.537Z,929.12
2016-12-02T01:36:12.761Z,929.14
2016-12-02T01:36:40.857Z,929.19
2016-12-02T01:37:52.111Z,929.14
2016-12-02T01:38:20.220Z,929.16
2016-12-02T01:38:48.535Z,929.17
2016-12-02T01:39:16.721Z,929.14
2016-12-02T01:39:45.009Z,929.14
2016-12-02T01:40:13.248Z,929.17
2016-12-02T01:40:41.253Z,929.18
2016-12-02T01:41:09.465Z,929.18
2016-12-02T01:41:37.777Z,929.19
2016-12-02T01:42:05.896Z,929.17
2016-12-02T01:42:33.994Z,929.12
2016-12-02T01:43:45.253Z,929.14
2016-12-02T01:44:13.364Z,929.23
2016-12-02T01:44:41.681Z,929.18
2016-12-02T01:45:09.683Z,929.18
2016-12-02T01:45:37.691Z,929.18
2016-12-02T01:46:05.739Z,929.17
2016-12-02T01:46:33.738Z,929.16
2016-12-02T01:47:01.949Z,929.22
2016-12-02T01:47:30.065Z,929.16
2016-12-02T01:47:58.287Z,929.15
2016-12-02T01:48:26.476Z,929.14
2016-12-02T01:49:37.733Z,929.17
2016-12-02T01:50:05.844Z,929.17
2016-12-02T01:50:34.067Z,929.13
2016-12-02T01:51:02.250Z,929.04
2016-12-02T01:51:30.444Z,929.1
2016-12-02T01:51:58.682Z,929.07
2016-12-02T01:52:26.878Z,929.02
2016-12-02T01:52:55.188Z,929.06
2016-12-02T01:53:23.407Z,929.01
2016-12-02T01:53:51.439Z,929.04
2016-12-02T01:54:19.440Z,928.98
2016-12-02T01:55:30.698Z,929.04
2016-12-02T01:55:58.905Z,929.04
2016-12-02T01:56:27.221Z,928.95
2016-12-02T01:56:55.407Z,928.98
2016-12-02T01:57:23.510Z,928.93
2016-12-02T01:57:51.654Z,928.93
2016-12-02T01:58:19.837Z,928.92
2016-12-02T01:58:47.862Z,929.03
2016-12-02T01:59:15.829Z,929.02
2016-12-02T01:59:43.949Z,928.94
2016-12-02T02:00:12.046Z,928.97
2016-12-02T02:01:23.118Z,928.98
2016-12-02T02:01:51.347Z,928.89
2016-12-02T02:02:19.477Z,928.96
2016-12-02T02:02:47.575Z,928.92
2016-12-02T02:03:15.763Z,928.92
2016-12-02T02:03:43.998Z,928.93
2016-12-02T02:04:11.997Z,928.95
2016-12-02T02:04:40.300Z,928.92
2016-12-02T02:05:08.319Z,928.88
2016-12-02T02:05:36.348Z,928.87
2016-12-02T02:06:04.256Z,928.88
2016-12-02T02:07:15.228Z,928.94
2016-12-02T02:07:43.551Z,928.9
2016-12-02T02:08:11.749Z,928.88
2016-12-02T02:08:39.842Z,928.81
2016-12-02T02:09:07.854Z,928.85
2016-12-02T02:09:35.990Z,928.83
2016-12-02T02:10:03.893Z,928.83
2016-12-02T02:10:32.108Z,928.81
2016-12-02T02:11:00.227Z,928.78
2016-12-02T02:11:28.441Z,928.85
2016-12-02T02:11:56.634Z,928.83
2016-12-02T02:13:07.801Z,928.84
2016-12-02T02:13:36.101Z,928.81
2016-12-02T02:14:04.420Z,928.81
2016-12-02T02:14:32.426Z,928.82
2016-12-02T02:15:00.338Z,928.81
2016-12-02T02:15:28.571Z,928.81
2016-12-02T02:15:56.582Z,928.84
2016-12-02T02:16:24.796Z,928.84
2016-12-02T02:16:53.011Z,928.85
2016-12-02T02:17:21.134Z,928.9
2016-12-02T02:17:49.327Z,928.85
2016-12-02T02:19:00.580Z,928.87
2016-12-02T02:19:29.319Z,928.84
2016-12-02T02:19:57.538Z,928.86
2016-12-02T02:20:25.349Z,928.84
2016-12-02T02:20:53.444Z,928.81
2016-12-02T02:21:21.586Z,928.79
2016-12-02T02:21:49.783Z,928.8
2016-12-02T02:22:17.989Z,928.78
2016-12-02T02:22:46.202Z,928.81
2016-12-02T02:23:14.418Z,928.78
2016-12-02T02:23:42.508Z,928.79
2016-12-02T02:24:53.760Z,928.83
2016-12-02T02:25:21.869Z,928.81
2016-12-02T02:25:50.186Z,928.8
2016-12-02T02:26:18.369Z,928.75
2016-12-02T02:26:46.566Z,928.78
2016-12-02T02:27:14.732Z,928.79
2016-12-02T02:27:42.641Z,928.78
2016-12-02T02:28:10.754Z,928.77
2016-12-02T02:28:38.871Z,928.76
2016-12-02T02:29:07.184Z,928.78
2016-12-02T02:29:35.282Z,928.79
2016-12-02T02:30:46.631Z,928.79
2016-12-02T02:31:14.844Z,928.81
2016-12-02T02:31:43.069Z,928.74
2016-12-02T02:32:11.255Z,928.78
2016-12-02T02:32:39.447Z,928.77
2016-12-02T02:33:07.585Z,928.77
2016-12-02T02:33:35.677Z,928.78
2016-12-02T02:34:03.884Z,928.83
2016-12-02T02:34:32.005Z,928.81
2016-12-02T02:35:00.219Z,928.77
2016-12-02T02:35:28.504Z,928.74
2016-12-02T02:36:39.850Z,928.77
2016-12-02T02:37:08.055Z,928.71
2016-12-02T02:37:36.378Z,928.73
2016-12-02T02:38:04.658Z,928.69
2016-12-02T02:38:32.761Z,928.71
2016-12-02T02:39:00.987Z,928.69
2016-12-02T02:39:29.182Z,928.73
2016-12-02T02:39:57.394Z,928.72
2016-12-02T02:40:25.708Z,928.69
2016-12-02T02:40:54.022Z,928.75
2016-12-02T02:41:22.030Z,928.71
2016-12-02T02:42:33.005Z,928.75
2016-12-02T02:43:00.932Z,928.71
2016-12-02T02:43:29.155Z,928.7
2016-12-02T02:43:57.344Z,928.79
2016-12-02T02:44:25.539Z,928.72
2016-12-02T02:44:53.771Z,928.74
2016-12-02T02:45:21.780Z,928.71
2016-12-02T02:45:50.088Z,928.74
2016-12-02T02:46:18.241Z,928.74
2016-12-02T02:46:46.457Z,928.72
2016-12-02T02:47:14.649Z,928.76
2016-12-02T02:48:25.720Z,928.7
2016-12-02T02:48:53.830Z,928.69
2016-12-02T02:49:21.967Z,928.66
2016-12-02T02:49:50.062Z,928.66
2016-12-02T02:50:18.069Z,928.6
2016-12-02T02:50:46.300Z,928.64
2016-12-02T02:51:14.398Z,928.62
2016-12-02T02:51:42.708Z,928.65
2016-12-02T02:52:10.932Z,928.66
2016-12-02T02:52:39.050Z,928.61
2016-12-02T02:53:07.238Z,928.6
2016-12-02T02:54:18.213Z,928.6
2016-12-02T02:54:46.232Z,928.65
2016-12-02T02:55:14.462Z,928.58
2016-12-02T02:55:42.466Z,928.57
2016-12-02T02:56:10.594Z,928.62
2016-12-02T02:56:38.823Z,928.62
2016-12-02T02:57:06.918Z,928.58
2016-12-02T02:57:35.131Z,928.59
2016-12-02T02:58:03.256Z,928.58
2016-12-02T02:58:31.469Z,928.57
2016-12-02T02:58:59.753Z,928.57
2016-12-02T03:00:11.005Z,928.6
2016-12-02T03:00:39.018Z,928.55
2016-12-02T03:01:07.240Z,928.55
2016-12-02T03:01:35.242Z,928.51
2016-12-02T03:02:03.344Z,928.51
2016-12-02T03:02:31.580Z,928.48
2016-12-02T03:02:59.774Z,928.52
2016-12-02T03:03:27.893Z,928.54
2016-12-02T03:03:55.924Z,928.51
2016-12-02T03:04:24.142Z,928.55
2016-12-02T03:04:52.147Z,928.51
2016-12-02T03:06:03.494Z,928.52
2016-12-02T03:06:31.611Z,928.51
2016-12-02T03:06:59.845Z,928.49
2016-12-02T03:07:27.839Z,928.44
2016-12-02T03:07:56.034Z,928.44
2016-12-02T03:08:24.169Z,928.43
2016-12-02T03:08:52.458Z,928.43
2016-12-02T03:09:20.768Z,928.42
2016-12-02T03:09:48.884Z,928.43
2016-12-02T03:10:17.009Z,928.39
2016-12-02T03:10:45.198Z,928.48
2016-12-02T03:11:56.365Z,928.45
2016-12-02T03:12:24.299Z,928.43
2016-12-02T03:12:52.618Z,928.46
2016-12-02T03:13:20.895Z,928.48
2016-12-02T03:13:48.904Z,928.48
2016-12-02T03:14:17.036Z,928.41
2016-12-02T03:14:45.224Z,928.39
2016-12-02T03:15:13.442Z,928.43
2016-12-02T03:15:41.750Z,928.4
2016-12-02T03:16:09.879Z,928.39
2016-12-02T03:16:38.168Z,928.37
2016-12-02T03:17:49.232Z,928.35
2016-12-02T03:18:17.536Z,928.39
2016-12-02T03:18:45.664Z,928.31
2016-12-02T03:19:13.758Z,928.28
2016-12-02T03:19:42.045Z,928.29
2016-12-02T03:20:10.276Z,928.3
2016-12-02T03:20:38.300Z,928.3
2016-12-02T03:21:06.519Z,928.27
2016-12-02T03:21:34.727Z,928.3
2016-12-02T03:22:02.846Z,928.29
2016-12-02T03:22:31.034Z,928.28
2016-12-02T03:23:42.288Z,928.31
2016-12-02T03:24:10.412Z,928.23
2016-12-02T03:24:38.724Z,928.28
2016-12-02T03:25:06.815Z,928.25
2016-12-02T03:25:35.101Z,928.25
2016-12-02T03:26:03.331Z,928.19
2016-12-02T03:26:31.423Z,928.19
2016-12-02T03:26:59.631Z,928.18
2016-12-02T03:27:27.752Z,928.14
2016-12-02T03:27:56.061Z,928.12
2016-12-02T03:28:24.257Z,928.19
2016-12-02T03:29:35.609Z,928.14
2016-12-02T03:30:03.837Z,928.23
2016-12-02T03:30:32.152Z,928.19
2016-12-02T03:31:00.245Z,928.15
2016-12-02T03:31:28.437Z,928.13
2016-12-02T03:31:56.480Z,928.1
2016-12-02T03:32:24.574Z,928.1
2016-12-02T03:32:52.883Z,928.15
2016-12-02T03:33:21.094Z,928.14
2016-12-02T03:33:49.216Z,928.07
2016-12-02T03:34:17.418Z,928.1
2016-12-02T03:35:28.574Z,928.07
2016-12-02T03:35:56.691Z,928.07
2016-12-02T03:36:24.914Z,928.06
2016-12-02T03:36:53.105Z,928.01
2016-12-02T03:37:21.297Z,928.06
2016-12-02T03:37:49.440Z,928.04
2016-12-02T03:38:17.629Z,927.96
2016-12-02T03:38:45.841Z,928.01
2016-12-02T03:39:14.058Z,928
2016-12-02T03:39:42.368Z,928.03
2016-12-02T03:40:10.469Z,927.99
2016-12-02T03:41:21.725Z,927.97
2016-12-02T03:41:49.944Z,927.97
2016-12-02T03:42:18.179Z,928.01
2016-12-02T03:42:46.365Z,927.95
2016-12-02T03:43:14.659Z,927.95
2016-12-02T03:43:42.705Z,927.96
2016-12-02T03:44:10.994Z,927.96
2016-12-02T03:44:39.214Z,927.93
2016-12-02T03:45:07.428Z,927.93
2016-12-02T03:45:35.744Z,927.94
2016-12-02T03:46:03.936Z,927.94
2016-12-02T03:47:15.095Z,927.94
2016-12-02T03:47:43.234Z,927.98
2016-12-02T03:48:11.623Z,928
2016-12-02T03:48:39.820Z,928.01
2016-12-02T03:49:08.022Z,927.99
2016-12-02T03:49:36.162Z,928.01
2016-12-02T03:50:04.351Z,928.07
2016-12-02T03:50:32.663Z,928.01
2016-12-02T03:51:00.892Z,928.01
2016-12-02T03:51:29.209Z,927.96
2016-12-02T03:51:57.403Z,928
2016-12-02T03:53:08.752Z,928.02
2016-12-02T03:53:36.969Z,927.99
2016-12-02T03:54:05.297Z,928.01
2016-12-02T03:54:33.399Z,928.01
2016-12-02T03:55:01.604Z,928.03
2016-12-02T03:55:29.744Z,928.03
2016-12-02T03:55:57.939Z,927.99
2016-12-02T03:56:26.164Z,928.02
2016-12-02T03:56:54.378Z,928
2016-12-02T03:57:22.622Z,927.97
2016-12-02T03:57:50.917Z,927.96
2016-12-02T03:59:02.181Z,927.98
2016-12-02T03:59:30.395Z,927.95
2016-12-02T03:59:58.722Z,927.94
2016-12-02T04:00:27.005Z,927.93
2016-12-02T04:00:55.105Z,927.91
2016-12-02T04:01:23.245Z,927.93
2016-12-02T04:01:51.534Z,927.95
2016-12-02T04:02:19.746Z,927.9
2016-12-02T04:02:47.785Z,927.88
2016-12-02T04:03:15.995Z,927.85
2016-12-02T04:03:44.097Z,927.9
2016-12-02T04:04:55.361Z,927.9
2016-12-02T04:05:23.572Z,927.85
2016-12-02T04:05:51.989Z,927.86
2016-12-02T04:06:20.083Z,927.9
2016-12-02T04:06:48.375Z,927.91
2016-12-02T04:07:16.541Z,927.9
2016-12-02T04:07:44.830Z,927.89
2016-12-02T04:08:12.952Z,927.87
2016-12-02T04:08:41.272Z,927.86
2016-12-02T04:09:09.398Z,927.86
2016-12-02T04:09:37.501Z,927.88
2016-12-02T04:10:48.849Z,927.86
2016-12-02T04:11:17.155Z,927.86
2016-12-02T04:11:45.298Z,927.82
2016-12-02T04:12:13.492Z,927.8
2016-12-02T04:12:41.689Z,927.81
2016-12-02T04:13:09.736Z,927.75
2016-12-02T04:13:38.026Z,927.78
2016-12-02T04:14:06.335Z,927.76
2016-12-02T04:14:34.490Z,927.73
2016-12-02T04:15:02.714Z,927.72
2016-12-02T04:15:31.007Z,927.73
2016-12-02T04:16:42.165Z,927.71
2016-12-02T04:17:10.382Z,927.72
2016-12-02T04:17:38.550Z,927.69
2016-12-02T04:18:06.739Z,927.72
2016-12-02T04:18:35.033Z,927.74
2016-12-02T04:19:03.175Z,927.78
2016-12-02T04:19:31.385Z,927.72
2016-12-02T04:19:59.600Z,927.77
2016-12-02T04:20:27.637Z,927.73
2016-12-02T04:20:55.759Z,927.74
2016-12-02T04:21:24.046Z,927.74
2016-12-02T04:22:35.215Z,927.79
2016-12-02T04:23:03.526Z,927.81
2016-12-02T04:23:31.850Z,927.81
2016-12-02T04:24:00.142Z,927.8
2016-12-02T04:24:28.158Z,927.75
2016-12-02T04:24:56.300Z,927.75
2016-12-02T04:25:24.587Z,927.73
2016-12-02T04:25:52.709Z,927.76
2016-12-02T04:26:21.025Z,927.72
2016-12-02T04:26:49.163Z,927.73
2016-12-02T04:27:17.268Z,927.75
2016-12-02T04:28:28.436Z,927.73
2016-12-02T04:28:56.459Z,927.74
2016-12-02T04:29:24.686Z,927.73
2016-12-02T04:29:52.877Z,927.7
2016-12-02T04:30:21.169Z,927.72
2016-12-02T04:30:49.411Z,927.73
2016-12-02T04:31:17.606Z,927.66
2016-12-02T04:31:45.828Z,927.69
2016-12-02T04:32:13.956Z,927.67
2016-12-02T04:32:42.080Z,927.64
2016-12-02T04:33:10.090Z,927.65
2016-12-02T04:34:21.443Z,927.67
2016-12-02T04:34:49.465Z,927.67
2016-12-02T04:35:17.598Z,927.64
2016-12-02T04:35:45.886Z,927.66
2016-12-02T04:36:13.994Z,927.69
2016-12-02T04:36:42.052Z,927.63
2016-12-02T04:37:10.325Z,927.61
2016-12-02T04:37:38.635Z,927.65
2016-12-02T04:38:06.880Z,927.63
2016-12-02T04:38:35.015Z,927.63
2016-12-02T04:39:03.301Z,927.63
2016-12-02T04:40:14.555Z,927.61
2016-12-02T04:40:42.859Z,927.63
2016-12-02T04:41:10.903Z,927.63
2016-12-02T04:41:39.092Z,927.59
2016-12-02T04:42:07.289Z,927.63
2016-12-02T04:42:35.427Z,927.58
2016-12-02T04:43:03.429Z,927.6
2016-12-02T04:43:31.547Z,927.61
2016-12-02T04:43:59.577Z,927.56
2016-12-02T04:44:27.888Z,927.61
2016-12-02T04:44:56.175Z,927.55
2016-12-02T04:46:07.346Z,927.6
2016-12-02T04:46:35.650Z,927.53
2016-12-02T04:47:03.782Z,927.5
2016-12-02T04:47:31.777Z,927.49
2016-12-02T04:47:59.971Z,927.5
2016-12-02T04:48:28.197Z,927.49
2016-12-02T04:48:56.300Z,927.52
2016-12-02T04:49:24.510Z,927.55
2016-12-02T04:49:52.642Z,927.53
2016-12-02T04:50:20.856Z,927.5
2016-12-02T04:50:48.956Z,927.5
2016-12-02T04:52:00.115Z,927.49
2016-12-02T04:52:28.237Z,927.49
2016-12-02T04:52:56.459Z,927.47
2016-12-02T04:53:24.650Z,927.47
2016-12-02T04:53:52.849Z,927.49
2016-12-02T04:54:21.081Z,927.47
2016-12-02T04:54:49.089Z,927.46
2016-12-02T04:55:17.303Z,927.45
2016-12-02T04:55:45.615Z,927.48
2016-12-02T04:56:13.923Z,927.46
2016-12-02T04:56:42.118Z,927.47
2016-12-02T04:57:53.187Z,927.44
2016-12-02T04:58:21.488Z,927.46
2016-12-02T04:58:49.812Z,927.44
2016-12-02T04:59:17.899Z,927.46
2016-12-02T04:59:46.007Z,927.45
2016-12-02T05:00:14.239Z,927.44
2016-12-02T05:00:42.336Z,927.41
2016-12-02T05:01:10.552Z,927.41
2016-12-02T05:01:38.680Z,927.41
2016-12-02T05:02:06.722Z,927.36
2016-12-02T05:02:34.912Z,927.38
2016-12-02T05:03:45.984Z,927.34
2016-12-02T05:04:14.189Z,927.35
2016-12-02T05:04:42.510Z,927.32
2016-12-02T05:05:10.606Z,927.31
2016-12-02T05:05:38.735Z,927.32
2016-12-02T05:06:06.879Z,927.3
2016-12-02T05:06:35.074Z,927.28
2016-12-02T05:07:03.283Z,927.27
2016-12-02T05:07:31.404Z,927.3
2016-12-02T05:07:59.526Z,927.3
2016-12-02T05:08:27.714Z,927.29
2016-12-02T05:09:39.061Z,927.32
2016-12-02T05:10:07.177Z,927.37
2016-12-02T05:10:35.403Z,927.28
2016-12-02T05:11:03.401Z,927.28
2016-12-02T05:11:31.511Z,927.34
2016-12-02T05:11:59.462Z,927.37
2016-12-02T05:12:27.561Z,927.33
2016-12-02T05:12:55.870Z,927.33
2016-12-02T05:13:24.089Z,927.36
2016-12-02T05:13:52.221Z,927.34
2016-12-02T05:14:20.413Z,927.31
2016-12-02T05:15:31.577Z,927.31
2016-12-02T05:15:59.784Z,927.29
2016-12-02T05:16:28.105Z,927.33
2016-12-02T05:16:56.297Z,927.31
2016-12-02T05:17:24.306Z,927.36
2016-12-02T05:17:52.444Z,927.29
2016-12-02T05:18:20.557Z,927.37
2016-12-02T05:18:48.866Z,927.4
2016-12-02T05:19:17.003Z,927.34
2016-12-02T05:19:45.129Z,927.33
2016-12-02T05:20:13.415Z,927.34
2016-12-02T05:21:24.676Z,927.34
2016-12-02T05:21:52.606Z,927.39
2016-12-02T05:22:20.745Z,927.35
2016-12-02T05:22:48.934Z,927.36
2016-12-02T05:23:16.748Z,927.31
2016-12-02T05:23:44.705Z,927.31
2016-12-02T05:24:12.892Z,927.32
2016-12-02T05:24:41.112Z,927.36
2016-12-02T05:25:09.226Z,927.36
2016-12-02T05:25:37.073Z,927.32
2016-12-02T05:26:05.166Z,927.28
2016-12-02T05:27:16.429Z,927.32
2016-12-02T05:27:44.445Z,927.29
2016-12-02T05:28:12.674Z,927.29
2016-12-02T05:28:40.961Z,927.26
2016-12-02T05:29:09.158Z,927.28
2016-12-02T05:29:37.206Z,927.27
2016-12-02T05:30:05.216Z,927.28
2016-12-02T05:30:33.428Z,927.23
2016-12-02T05:31:01.739Z,927.24
2016-12-02T05:31:29.582Z,927.27
2016-12-02T05:31:57.866Z,927.23
2016-12-02T05:33:09.123Z,927.27
2016-12-02T05:33:37.237Z,927.25
2016-12-02T05:34:05.461Z,927.23
2016-12-02T05:34:33.650Z,927.29
2016-12-02T05:35:01.842Z,927.27
2016-12-02T05:35:30.179Z,927.29
2016-12-02T05:35:58.463Z,927.36
2016-12-02T05:36:26.678Z,927.36
2016-12-02T05:36:54.984Z,927.34
2016-12-02T05:37:23.108Z,927.3
2016-12-02T05:37:50.927Z,927.34
2016-12-02T05:39:02.094Z,927.34
2016-12-02T05:39:30.207Z,927.37
2016-12-02T05:39:58.526Z,927.32
2016-12-02T05:40:26.436Z,927.35
2016-12-02T05:40:54.631Z,927.34
2016-12-02T05:41:22.962Z,927.3
2016-12-02T05:41:51.152Z,927.3
2016-12-02T05:42:19.364Z,927.3
2016-12-02T05:42:47.397Z,927.28
2016-12-02T05:43:15.707Z,927.27
2016-12-02T05:43:43.991Z,927.29
2016-12-02T05:44:55.340Z,927.3
2016-12-02T05:45:23.454Z,927.27
2016-12-02T05:45:51.776Z,927.33
2016-12-02T05:46:19.870Z,927.27
2016-12-02T05:46:47.886Z,927.33
2016-12-02T05:47:15.936Z,927.25
2016-12-02T05:47:44.122Z,927.35
2016-12-02T05:48:12.149Z,927.26
2016-12-02T05:48:40.359Z,927.31
2016-12-02T05:49:08.386Z,927.3
2016-12-02T05:49:36.587Z,927.28
2016-12-02T05:50:47.834Z,927.23
2016-12-02T05:51:15.947Z,927.32
2016-12-02T05:51:44.268Z,927.39
2016-12-02T05:52:12.273Z,927.33
2016-12-02T05:52:40.281Z,927.26
2016-12-02T05:53:08.425Z,927.35
2016-12-02T05:53:36.614Z,927.32
2016-12-02T05:54:04.832Z,927.31
2016-12-02T05:54:32.959Z,927.28
2016-12-02T05:55:01.173Z,927.27
2016-12-02T05:55:29.365Z,927.25
2016-12-02T05:56:40.623Z,927.27
2016-12-02T05:57:08.835Z,927.24
2016-12-02T05:57:36.970Z,927.2
2016-12-02T05:58:04.974Z,927.24
2016-12-02T05:58:33.261Z,927.23
2016-12-02T05:59:01.587Z,927.19
2016-12-02T05:59:29.782Z,927.18
2016-12-02T05:59:57.994Z,927.22
2016-12-02T06:00:26.113Z,927.2
2016-12-02T06:00:54.236Z,927.21
2016-12-02T06:01:22.433Z,927.26
2016-12-02T06:02:33.778Z,927.22
2016-12-02T06:03:01.804Z,927.21
2016-12-02T06:03:30.027Z,927.2
2016-12-02T06:03:58.212Z,927.23
2016-12-02T06:04:26.501Z,927.24
2016-12-02T06:04:54.480Z,927.26
2016-12-02T06:05:22.674Z,927.27
2016-12-02T06:05:50.882Z,927.28
2016-12-02T06:06:19.186Z,927.25
2016-12-02T06:06:47.405Z,927.3
2016-12-02T06:07:15.502Z,927.27
2016-12-02T06:08:26.759Z,927.32
2016-12-02T06:08:54.878Z,927.3
2016-12-02T06:09:23.197Z,927.24
2016-12-02T06:09:51.383Z,927.22
2016-12-02T06:10:19.676Z,927.23
2016-12-02T06:10:47.903Z,927.27
2016-12-02T06:11:16.091Z,927.24
2016-12-02T06:11:44.304Z,927.36
2016-12-02T06:12:12.531Z,927.28
2016-12-02T06:12:40.744Z,927.23
2016-12-02T06:13:08.755Z,927.23
2016-12-02T06:14:20.021Z,927.27
2016-12-02T06:14:48.225Z,927.35
2016-12-02T06:15:16.446Z,927.3
2016-12-02T06:15:44.543Z,927.33
2016-12-02T06:16:12.559Z,927.28
2016-12-02T06:16:40.885Z,927.28
2016-12-02T06:17:08.987Z,927.3
2016-12-02T06:17:37.108Z,927.33
2016-12-02T06:18:05.142Z,927.33
2016-12-02T06:18:33.359Z,927.37
2016-12-02T06:19:01.547Z,927.35
2016-12-02T06:20:12.807Z,927.39
2016-12-02T06:20:40.916Z,927.39
2016-12-02T06:21:09.236Z,927.42
2016-12-02T06:21:37.430Z,927.38
2016-12-02T06:22:05.629Z,927.46
2016-12-02T06:22:33.865Z,927.45
2016-12-02T06:23:02.054Z,927.43
2016-12-02T06:23:30.268Z,927.46
2016-12-02T06:23:58.514Z,927.51
2016-12-02T06:24:26.821Z,927.5
2016-12-02T06:24:54.917Z,927.47
2016-12-02T06:26:06.261Z,927.44
2016-12-02T06:26:34.467Z,927.45
2016-12-02T06:27:02.705Z,927.51
2016-12-02T06:27:30.892Z,927.51
2016-12-02T06:27:58.711Z,927.45
2016-12-02T06:28:26.845Z,927.45
2016-12-02T06:28:55.041Z,927.47
2016-12-02T06:29:23.340Z,927.52
2016-12-02T06:29:51.462Z,927.5
2016-12-02T06:30:19.688Z,927.5
2016-12-02T06:30:47.880Z,927.47
2016-12-02T06:31:59.136Z,927.55
2016-12-02T06:32:27.441Z,927.46
2016-12-02T06:32:55.665Z,927.51
2016-12-02T06:33:23.761Z,927.48
2016-12-02T06:33:51.963Z,927.46
2016-12-02T06:34:20.095Z,927.49
2016-12-02T06:34:48.290Z,927.41
2016-12-02T06:35:16.418Z,927.45
2016-12-02T06:35:44.727Z,927.41
2016-12-02T06:36:12.846Z,927.43
2016-12-02T06:36:41.038Z,927.41
2016-12-02T06:37:52.394Z,927.43
2016-12-02T06:38:20.607Z,927.39
2016-12-02T06:38:48.834Z,927.45
2016-12-02T06:39:17.024Z,927.42
2016-12-02T06:39:45.031Z,927.42
2016-12-02T06:40:13.090Z,927.47
2016-12-02T06:40:41.180Z,927.38
2016-12-02T06:41:09.207Z,927.43